Terminal Aerodrome Forecast
Issued by NWS Charleston, WV

Current Version | Previous Version | Graphics & Text | Print | Product List | Glossary On
Versions: 1 2 3 4 5 6 7 8 9 10 11 12 13 14 15 16 17 18 19 20 21 22 23 24 25
000
FTUS41 KRLX 210200 AAA
TAFBKW
TAF AMD
KBKW 210258Z 2103/2124 12011KT P6SM SKC
     FM210500 16004KT P6SM BKN003
     FM211400 VRB03KT P6SM SCT003 BKN120
     FM211500 13005KT P6SM BKN050
     FM212000 13005KT P6SM VCTS BKN050CB
     FM212300 14005KT P6SM BKN100=

USA.gov is the U.S. government's official web portal to all federal, state and local government web resources and services.